createdAt,value
2022-07-26T00:01:40.774Z,18.00
2022-07-26T00:04:07.961Z,18.10
2022-07-26T00:06:35.403Z,18.00
2022-07-26T00:09:02.543Z,18.00
2022-07-26T00:11:33.645Z,17.90
2022-07-26T00:14:05.813Z,17.90
2022-07-26T00:16:33.208Z,17.90
2022-07-26T00:19:00.250Z,17.80
2022-07-26T00:21:27.480Z,17.80
2022-07-26T00:23:54.479Z,17.70
2022-07-26T00:26:21.486Z,17.60
2022-07-26T00:28:48.904Z,17.70
2022-07-26T00:31:15.990Z,17.70
2022-07-26T00:33:42.973Z,17.60
2022-07-26T00:36:10.345Z,17.60
2022-07-26T00:38:38.424Z,17.50
2022-07-26T00:41:05.885Z,17.50
2022-07-26T00:43:33.561Z,17.60
2022-07-26T00:46:02.518Z,17.50
2022-07-26T00:48:29.617Z,17.50
2022-07-26T00:50:56.848Z,17.50
2022-07-26T00:53:24.291Z,17.40
2022-07-26T00:55:51.297Z,17.20
2022-07-26T00:58:19.003Z,17.20
2022-07-26T01:00:46.150Z,17.10
2022-07-26T01:03:13.313Z,17.00
2022-07-26T01:05:40.479Z,16.90
2022-07-26T01:08:07.584Z,16.80
2022-07-26T01:10:34.984Z,16.90
2022-07-26T01:13:02.299Z,16.90
2022-07-26T01:15:29.229Z,16.90
2022-07-26T01:17:57.838Z,16.80
2022-07-26T01:20:24.959Z,16.80
2022-07-26T01:22:51.868Z,16.80
2022-07-26T01:25:29.177Z,16.90
2022-07-26T01:27:56.458Z,16.90
2022-07-26T01:30:24.021Z,16.90
2022-07-26T01:32:50.951Z,16.90
2022-07-26T01:35:18.319Z,16.90
2022-07-26T01:37:45.250Z,16.90
2022-07-26T01:40:12.709Z,16.90
2022-07-26T01:42:41.098Z,17.00
2022-07-26T01:45:09.781Z,17.00
2022-07-26T01:47:37.844Z,17.10
2022-07-26T01:50:07.773Z,17.10
2022-07-26T01:52:35.673Z,17.20
2022-07-26T01:55:02.927Z,17.20
2022-07-26T01:57:30.006Z,17.30
2022-07-26T01:59:56.932Z,17.40
2022-07-26T02:02:24.596Z,17.40
2022-07-26T02:05:01.625Z,17.50
2022-07-26T02:07:31.348Z,17.50
2022-07-26T02:10:00.544Z,17.60
2022-07-26T02:12:27.718Z,17.60
2022-07-26T02:14:54.643Z,17.60
2022-07-26T02:17:21.821Z,17.70
2022-07-26T02:19:48.893Z,17.80
2022-07-26T02:22:16.190Z,17.90
2022-07-26T02:24:43.528Z,17.90
2022-07-26T02:27:10.487Z,17.90
2022-07-26T02:29:37.408Z,17.90
2022-07-26T02:32:05.065Z,17.90
2022-07-26T02:34:33.882Z,17.90
2022-07-26T02:37:01.401Z,18.00
2022-07-26T02:39:28.723Z,18.00
2022-07-26T02:42:00.330Z,18.00
2022-07-26T02:44:28.352Z,18.00
2022-07-26T02:46:55.555Z,18.10
2022-07-26T02:49:22.855Z,18.10
2022-07-26T02:51:49.858Z,18.10
2022-07-26T02:54:17.186Z,18.00
2022-07-26T02:56:44.083Z,18.10
2022-07-26T02:59:11.073Z,18.00
2022-07-26T03:01:39.760Z,18.00
2022-07-26T03:04:08.173Z,18.00
2022-07-26T03:06:35.583Z,17.90
2022-07-26T03:09:03.145Z,18.00
2022-07-26T03:11:30.186Z,18.00
2022-07-26T03:13:57.138Z,18.10
2022-07-26T03:16:29.228Z,18.10
2022-07-26T03:18:57.015Z,18.10
2022-07-26T03:21:24.616Z,18.20
2022-07-26T03:23:51.778Z,18.20
2022-07-26T03:26:19.086Z,18.20
2022-07-26T03:28:45.974Z,18.30
2022-07-26T03:31:13.747Z,18.40
2022-07-26T03:33:41.033Z,18.40
2022-07-26T03:36:15.335Z,18.50
2022-07-26T03:38:42.938Z,18.50
2022-07-26T03:41:13.426Z,18.50
2022-07-26T03:43:40.920Z,18.50
2022-07-26T03:46:08.413Z,18.50
2022-07-26T03:48:35.472Z,18.50
2022-07-26T03:51:02.606Z,18.50
2022-07-26T03:53:29.786Z,18.50
2022-07-26T03:56:15.226Z,18.50
2022-07-26T03:58:42.416Z,18.50
2022-07-26T04:01:09.380Z,18.50
2022-07-26T04:03:36.378Z,18.50
2022-07-26T04:06:03.571Z,18.50
2022-07-26T04:08:30.673Z,18.50
2022-07-26T04:10:57.655Z,18.50
2022-07-26T04:13:25.254Z,18.60
2022-07-26T04:15:52.200Z,18.70
2022-07-26T04:18:19.218Z,18.70
2022-07-26T04:20:46.411Z,18.80
2022-07-26T04:23:13.346Z,18.90
2022-07-26T04:25:41.762Z,18.90
2022-07-26T04:28:09.761Z,19.00
2022-07-26T04:30:36.829Z,19.00
2022-07-26T04:33:04.504Z,19.10
2022-07-26T04:35:31.872Z,19.10
2022-07-26T04:37:58.887Z,19.10
2022-07-26T04:40:28.461Z,19.20
2022-07-26T04:42:56.473Z,19.20
2022-07-26T04:45:23.548Z,19.20
2022-07-26T04:47:51.172Z,19.20
2022-07-26T04:50:20.391Z,19.20
2022-07-26T04:52:48.501Z,19.10
2022-07-26T04:55:15.993Z,18.90
2022-07-26T04:57:43.252Z,18.70
2022-07-26T05:00:22.179Z,18.70
2022-07-26T05:02:51.478Z,18.70
2022-07-26T05:05:18.549Z,18.60
2022-07-26T05:07:50.909Z,18.60
2022-07-26T05:10:19.397Z,18.50
2022-07-26T05:12:47.557Z,18.60
2022-07-26T05:15:15.655Z,18.50
2022-07-26T05:17:43.590Z,18.60
2022-07-26T05:20:25.581Z,18.70
2022-07-26T05:22:52.778Z,18.60
2022-07-26T05:25:19.802Z,18.40
2022-07-26T05:27:46.692Z,18.40
2022-07-26T05:30:13.867Z,18.30
2022-07-26T05:32:40.906Z,18.40
2022-07-26T05:35:08.542Z,18.30
2022-07-26T05:37:36.011Z,18.40
2022-07-26T05:40:04.752Z,18.30
2022-07-26T05:42:31.783Z,18.30
2022-07-26T05:44:58.934Z,18.40
2022-07-26T05:47:25.900Z,18.40
2022-07-26T05:49:52.869Z,18.50
2022-07-26T05:52:20.010Z,18.40
2022-07-26T05:54:47.002Z,18.10
2022-07-26T05:57:13.945Z,17.90
2022-07-26T05:59:41.075Z,17.80
2022-07-26T06:02:08.817Z,17.70
2022-07-26T06:04:35.901Z,17.70
2022-07-26T06:07:03.553Z,17.50
2022-07-26T06:09:30.674Z,17.40
2022-07-26T06:11:57.561Z,17.40
2022-07-26T06:14:24.778Z,17.30
2022-07-26T06:16:51.927Z,17.30
2022-07-26T06:19:18.946Z,17.30
2022-07-26T06:21:46.196Z,17.40
2022-07-26T06:24:13.907Z,17.40
2022-07-26T06:26:40.935Z,17.50
2022-07-26T06:29:08.445Z,17.50
2022-07-26T06:31:35.510Z,17.60
2022-07-26T06:34:02.638Z,17.70
2022-07-26T06:36:31.011Z,17.70
2022-07-26T06:38:58.413Z,17.80
2022-07-26T06:41:25.909Z,17.80
2022-07-26T06:43:53.105Z,17.90
2022-07-26T06:46:21.177Z,18.00
2022-07-26T06:48:52.672Z,18.20
2022-07-26T06:51:20.944Z,18.40
2022-07-26T06:53:48.097Z,18.60
2022-07-26T06:56:17.395Z,18.90
2022-07-26T06:58:45.169Z,19.20
2022-07-26T07:01:12.358Z,19.60
2022-07-26T07:03:39.395Z,20.00
2022-07-26T07:06:06.803Z,20.40
2022-07-26T07:08:34.063Z,20.80
2022-07-26T07:11:01.998Z,21.20
2022-07-26T07:13:29.174Z,21.80
2022-07-26T07:15:58.145Z,22.20
2022-07-26T07:18:25.072Z,22.40
2022-07-26T07:20:52.170Z,22.30
2022-07-26T07:23:22.397Z,22.50
2022-07-26T07:25:50.253Z,22.70
2022-07-26T07:28:18.585Z,22.80
2022-07-26T07:30:47.494Z,22.50
2022-07-26T07:33:22.879Z,22.10
2022-07-26T07:35:52.235Z,21.60
2022-07-26T07:38:19.212Z,21.30
2022-07-26T07:40:46.262Z,21.20
2022-07-26T07:43:13.474Z,21.10
2022-07-26T07:45:40.402Z,20.90
2022-07-26T07:48:07.314Z,20.50
2022-07-26T07:50:34.478Z,20.20
2022-07-26T07:53:02.331Z,20.00
2022-07-26T07:55:40.302Z,19.90
2022-07-26T07:58:10.742Z,19.80
2022-07-26T08:00:37.835Z,19.90
2022-07-26T08:03:05.464Z,19.90
2022-07-26T08:05:32.542Z,20.00
2022-07-26T08:07:59.793Z,20.20
2022-07-26T08:10:27.216Z,20.30
2022-07-26T08:12:54.617Z,20.50
2022-07-26T08:15:23.454Z,20.60
2022-07-26T08:17:53.761Z,20.70
2022-07-26T08:20:24.871Z,20.80
2022-07-26T08:22:52.667Z,20.70
2022-07-26T08:25:20.042Z,20.70
2022-07-26T08:28:02.510Z,20.70
2022-07-26T08:30:30.496Z,20.40
2022-07-26T08:32:57.667Z,20.40
2022-07-26T08:35:24.936Z,20.30
2022-07-26T08:37:52.014Z,20.20
2022-07-26T08:40:19.095Z,19.90
2022-07-26T08:42:53.599Z,19.60
2022-07-26T08:45:30.506Z,19.50
2022-07-26T08:50:46.226Z,19.30
2022-07-26T08:53:13.394Z,19.30
2022-07-26T08:56:04.718Z,19.30
2022-07-26T08:58:27.900Z,19.30
2022-07-26T09:01:05.102Z,19.40
2022-07-26T09:03:32.641Z,19.50
2022-07-26T09:06:21.308Z,19.70
2022-07-26T09:08:51.332Z,19.90
2022-07-26T09:11:32.702Z,20.10
2022-07-26T09:14:05.827Z,20.40
2022-07-26T09:16:36.249Z,20.50
2022-07-26T09:19:19.590Z,20.60
2022-07-26T09:21:46.876Z,20.70
2022-07-26T09:24:29.626Z,20.90
2022-07-26T09:26:57.795Z,21.20
2022-07-26T09:29:25.080Z,21.40
2022-07-26T09:31:52.089Z,21.50
2022-07-26T09:34:26.095Z,21.70
2022-07-26T09:36:54.599Z,21.90
2022-07-26T09:39:22.788Z,22.00
2022-07-26T09:42:27.368Z,21.90
2022-07-26T09:44:56.518Z,21.80
2022-07-26T09:47:35.167Z,21.60
2022-07-26T09:50:15.518Z,21.40
2022-07-26T09:53:08.928Z,21.20
2022-07-26T09:55:54.924Z,21.10
2022-07-26T09:58:23.484Z,21.20
2022-07-26T10:00:50.656Z,21.20
2022-07-26T10:03:17.731Z,21.10
2022-07-26T10:05:44.976Z,21.00
2022-07-26T10:08:12.730Z,20.80
2022-07-26T10:10:45.599Z,20.60
2022-07-26T10:13:13.417Z,20.60
2022-07-26T10:15:49.288Z,20.50
2022-07-26T10:18:55.710Z,20.40
2022-07-26T10:21:30.649Z,20.30
2022-07-26T10:24:02.896Z,20.20
2022-07-26T10:26:32.750Z,20.10
2022-07-26T10:29:20.508Z,20.10
2022-07-26T10:32:09.795Z,20.10
2022-07-26T10:34:40.877Z,20.20
2022-07-26T10:37:21.033Z,20.20
2022-07-26T10:39:48.146Z,20.20
2022-07-26T10:42:15.056Z,20.20
2022-07-26T10:44:47.094Z,20.20
2022-07-26T10:47:16.510Z,20.30
2022-07-26T10:49:52.388Z,20.30
2022-07-26T10:52:22.964Z,20.40
2022-07-26T10:55:04.825Z,20.50
2022-07-26T10:57:44.736Z,20.60
2022-07-26T11:00:18.413Z,20.70
2022-07-26T11:02:50.289Z,20.80
2022-07-26T11:05:18.765Z,21.00
2022-07-26T11:08:01.615Z,21.10
2022-07-26T11:10:30.281Z,21.30
2022-07-26T11:13:00.029Z,21.50
2022-07-26T11:15:26.984Z,21.60
2022-07-26T11:18:06.773Z,21.80
2022-07-26T11:20:33.681Z,22.10
2022-07-26T11:23:00.798Z,22.20
2022-07-26T11:25:29.044Z,22.50
2022-07-26T11:28:07.304Z,22.50
2022-07-26T11:30:35.470Z,22.50
2022-07-26T11:33:02.396Z,22.30
2022-07-26T11:35:30.034Z,22.20
2022-07-26T11:38:11.083Z,22.00
2022-07-26T11:40:46.695Z,21.90
2022-07-26T11:43:14.555Z,21.70
2022-07-26T11:45:41.513Z,21.70
2022-07-26T11:48:08.519Z,21.60
2022-07-26T11:50:35.947Z,21.50
2022-07-26T11:53:02.926Z,21.50
2022-07-26T11:55:30.872Z,21.40
2022-07-26T11:58:07.033Z,21.40
2022-07-26T12:00:34.294Z,21.40
2022-07-26T12:03:01.393Z,21.50
2022-07-26T12:05:31.027Z,21.50
2022-07-26T12:08:01.166Z,21.60
2022-07-26T12:10:28.692Z,21.70
2022-07-26T12:13:13.463Z,21.90
2022-07-26T12:15:52.161Z,22.30
2022-07-26T12:18:30.542Z,22.70
2022-07-26T12:21:05.201Z,23.00
2022-07-26T12:23:43.042Z,23.20
2022-07-26T12:26:30.878Z,23.40
2022-07-26T12:29:18.825Z,23.50
2022-07-26T12:31:46.917Z,23.80
2022-07-26T12:34:21.022Z,24.10
2022-07-26T12:36:48.496Z,24.40
2022-07-26T12:39:22.358Z,24.50
2022-07-26T12:41:50.641Z,24.50
2022-07-26T12:44:17.830Z,24.50
2022-07-26T12:46:46.621Z,24.40
2022-07-26T12:49:14.173Z,24.20
2022-07-26T12:51:41.620Z,24.00
2022-07-26T12:54:09.049Z,23.90
2022-07-26T12:56:36.487Z,24.00
2022-07-26T12:59:03.547Z,24.00
2022-07-26T13:01:31.628Z,23.90
2022-07-26T13:03:58.865Z,24.00
2022-07-26T13:06:25.820Z,24.00
2022-07-26T13:08:52.774Z,24.10
2022-07-26T13:11:20.166Z,24.10
2022-07-26T13:13:47.132Z,24.00
2022-07-26T13:16:14.075Z,24.00
2022-07-26T13:18:41.249Z,24.10
2022-07-26T13:21:08.196Z,24.10
2022-07-26T13:23:35.749Z,24.00
2022-07-26T13:26:04.083Z,23.90
2022-07-26T13:28:31.491Z,23.80
2022-07-26T13:30:58.411Z,23.60
2022-07-26T13:33:25.639Z,23.40
2022-07-26T13:35:52.589Z,23.30
2022-07-26T13:38:20.301Z,23.20
2022-07-26T13:40:47.826Z,23.10
2022-07-26T13:43:14.941Z,23.10
2022-07-26T13:45:42.066Z,23.00
2022-07-26T13:48:09.298Z,23.00
2022-07-26T13:50:36.228Z,22.90
2022-07-26T13:53:03.281Z,22.90
2022-07-26T13:55:31.027Z,22.90
2022-07-26T13:57:58.427Z,22.90
2022-07-26T14:00:26.821Z,23.00
2022-07-26T14:02:55.570Z,23.00
2022-07-26T14:05:22.773Z,23.00
2022-07-26T14:07:50.226Z,23.10
2022-07-26T14:10:17.961Z,23.30
2022-07-26T14:12:45.224Z,23.20
2022-07-26T14:15:16.660Z,23.20
2022-07-26T14:17:47.410Z,23.30
2022-07-26T14:20:17.145Z,23.50
2022-07-26T14:22:44.746Z,23.50
2022-07-26T14:25:12.523Z,23.60
2022-07-26T14:27:39.489Z,23.50
2022-07-26T14:30:06.995Z,23.60
2022-07-26T14:32:34.224Z,23.60
2022-07-26T14:35:01.224Z,23.70
2022-07-26T14:37:41.465Z,23.70
2022-07-26T14:40:14.704Z,23.80
2022-07-26T14:42:41.904Z,23.80
2022-07-26T14:45:09.919Z,23.90
2022-07-26T14:47:37.295Z,23.90
2022-07-26T14:50:08.161Z,23.90
2022-07-26T14:52:40.646Z,24.00
2022-07-26T14:55:08.890Z,23.90
2022-07-26T14:57:39.599Z,23.90
2022-07-26T15:00:13.071Z,23.90
2022-07-26T15:02:45.565Z,23.90
2022-07-26T15:05:14.099Z,23.80
2022-07-26T15:07:42.045Z,23.80
2022-07-26T15:10:11.266Z,23.80
2022-07-26T15:12:39.214Z,23.70
2022-07-26T15:15:07.638Z,23.60
2022-07-26T15:17:35.667Z,23.60
2022-07-26T15:20:03.757Z,23.50
2022-07-26T15:22:31.074Z,23.50
2022-07-26T15:24:58.085Z,23.50
2022-07-26T15:27:24.968Z,23.50
2022-07-26T15:29:52.077Z,23.50
2022-07-26T15:32:21.265Z,23.50
2022-07-26T15:34:48.656Z,23.50
2022-07-26T15:37:15.857Z,23.50
2022-07-26T15:39:42.822Z,23.60
2022-07-26T15:42:09.897Z,23.60
2022-07-26T15:44:41.505Z,23.50
2022-07-26T15:47:08.641Z,23.60
2022-07-26T15:49:40.230Z,23.60
2022-07-26T15:52:10.178Z,23.60
2022-07-26T15:54:37.307Z,23.70
2022-07-26T15:57:04.436Z,23.80
2022-07-26T15:59:31.535Z,23.70
2022-07-26T16:01:58.727Z,23.70
2022-07-26T16:04:25.728Z,23.80
2022-07-26T16:06:52.989Z,23.70
2022-07-26T16:09:20.200Z,23.70
2022-07-26T16:11:48.850Z,23.70
2022-07-26T16:14:16.795Z,23.70
2022-07-26T16:16:45.133Z,23.70
2022-07-26T16:19:12.467Z,23.70
2022-07-26T16:21:40.714Z,23.80
2022-07-26T16:24:08.214Z,23.70
2022-07-26T16:26:36.013Z,23.80
2022-07-26T16:29:04.302Z,23.70
2022-07-26T16:31:31.344Z,23.70
2022-07-26T16:33:58.600Z,23.70
2022-07-26T16:36:25.865Z,23.60
2022-07-26T16:38:52.873Z,23.60
2022-07-26T16:41:19.942Z,23.60
2022-07-26T16:43:47.430Z,23.50
2022-07-26T16:46:14.647Z,23.40
2022-07-26T16:48:41.644Z,23.30
2022-07-26T16:51:08.993Z,23.30
2022-07-26T16:53:35.903Z,23.30
2022-07-26T16:56:02.818Z,23.30
2022-07-26T16:58:30.345Z,23.30
2022-07-26T17:00:57.303Z,23.30
2022-07-26T17:03:24.258Z,23.30
2022-07-26T17:05:51.866Z,23.30
2022-07-26T17:08:18.870Z,23.30
2022-07-26T17:10:46.164Z,23.50
2022-07-26T17:13:13.330Z,23.50
2022-07-26T17:15:40.314Z,23.50
2022-07-26T17:18:07.356Z,23.50
2022-07-26T17:20:34.482Z,23.40
2022-07-26T17:23:01.383Z,23.40
2022-07-26T17:25:28.556Z,23.30
2022-07-26T17:27:55.974Z,23.30
2022-07-26T17:30:23.126Z,23.20
2022-07-26T17:32:50.219Z,23.00
2022-07-26T17:35:17.809Z,23.00
2022-07-26T17:37:44.705Z,22.90
2022-07-26T17:40:16.276Z,22.80
2022-07-26T17:42:43.578Z,22.70
2022-07-26T17:45:10.919Z,22.60
2022-07-26T17:47:37.921Z,22.50
2022-07-26T17:50:35.383Z,22.30
2022-07-26T17:52:53.787Z,22.20
2022-07-26T17:55:21.689Z,22.00
2022-07-26T17:57:50.348Z,21.90
2022-07-26T18:00:19.447Z,21.70
2022-07-26T18:02:47.613Z,21.60
2022-07-26T18:05:14.736Z,21.40
2022-07-26T18:07:41.931Z,21.30
2022-07-26T18:10:10.162Z,21.10
2022-07-26T18:12:37.370Z,21.00
2022-07-26T18:15:06.353Z,20.90
2022-07-26T18:17:33.531Z,20.70
2022-07-26T18:20:00.561Z,20.50
2022-07-26T18:22:27.565Z,20.30
2022-07-26T18:24:54.758Z,20.20
2022-07-26T18:27:22.353Z,20.10
2022-07-26T18:29:49.517Z,19.90
2022-07-26T18:32:16.888Z,19.80
2022-07-26T18:34:51.396Z,19.70
2022-07-26T18:37:20.736Z,19.60
2022-07-26T18:39:49.350Z,19.50
2022-07-26T18:42:17.606Z,19.40
2022-07-26T18:44:44.841Z,19.20
2022-07-26T18:47:11.772Z,19.10
2022-07-26T18:49:38.789Z,19.10
2022-07-26T18:52:08.863Z,19.00
2022-07-26T18:54:36.616Z,18.80
2022-07-26T18:57:04.530Z,18.80
2022-07-26T18:59:32.122Z,18.70
2022-07-26T19:02:00.199Z,18.60
2022-07-26T19:04:28.442Z,18.60
2022-07-26T19:06:55.997Z,18.50
2022-07-26T19:09:22.993Z,18.40
2022-07-26T19:11:50.162Z,18.40
2022-07-26T19:14:17.464Z,19.90
2022-07-26T19:16:44.464Z,18.30
2022-07-26T19:19:11.745Z,18.40
2022-07-26T19:21:40.945Z,18.40
2022-07-26T19:24:07.868Z,18.50
2022-07-26T19:26:35.830Z,18.60
2022-07-26T19:29:03.992Z,18.70
2022-07-26T19:31:30.940Z,18.70
2022-07-26T19:33:57.890Z,18.80
2022-07-26T19:36:25.453Z,18.90
2022-07-26T19:38:54.393Z,19.00
2022-07-26T19:41:21.357Z,19.00
2022-07-26T19:43:48.519Z,19.00
2022-07-26T19:46:15.551Z,19.10
2022-07-26T19:48:42.745Z,19.10
2022-07-26T19:51:09.972Z,19.10
2022-07-26T19:53:37.137Z,19.20
2022-07-26T19:56:04.345Z,19.20
2022-07-26T19:58:31.664Z,19.20
2022-07-26T20:00:58.616Z,19.20
2022-07-26T20:03:25.585Z,19.20
2022-07-26T20:05:53.782Z,19.30
2022-07-26T20:08:21.359Z,19.30
2022-07-26T20:10:48.318Z,19.30
2022-07-26T20:13:16.221Z,19.30
2022-07-26T20:15:43.771Z,19.30
2022-07-26T20:18:11.073Z,19.30
2022-07-26T20:20:38.639Z,19.30
2022-07-26T20:23:07.436Z,19.30
2022-07-26T20:25:34.493Z,19.30
2022-07-26T20:28:02.064Z,19.30
2022-07-26T20:30:29.237Z,19.30
2022-07-26T20:32:56.135Z,19.30
2022-07-26T20:35:23.275Z,19.20
2022-07-26T20:37:50.221Z,19.20
2022-07-26T20:40:18.664Z,19.10
2022-07-26T20:42:47.675Z,19.10
2022-07-26T20:45:17.156Z,19.00
2022-07-26T20:47:44.190Z,19.00
2022-07-26T20:50:12.589Z,19.00
2022-07-26T20:52:39.780Z,19.00
2022-07-26T20:55:07.550Z,18.90
2022-07-26T20:57:35.156Z,18.80
2022-07-26T21:00:02.601Z,18.80
2022-07-26T21:02:29.643Z,18.80
2022-07-26T21:04:58.713Z,18.80
2022-07-26T21:07:55.091Z,18.80
2022-07-26T21:10:13.999Z,18.70
2022-07-26T21:12:41.689Z,18.70
2022-07-26T21:15:09.233Z,18.70
2022-07-26T21:17:36.561Z,18.70
2022-07-26T21:20:05.172Z,18.70
2022-07-26T21:22:32.141Z,18.60
2022-07-26T21:24:59.421Z,18.60
2022-07-26T21:27:26.371Z,18.60
2022-07-26T21:29:53.323Z,18.50
2022-07-26T21:32:20.509Z,18.40
2022-07-26T21:34:47.494Z,18.30
2022-07-26T21:37:14.961Z,18.30
2022-07-26T21:39:42.149Z,18.20
2022-07-26T21:42:09.387Z,18.00
2022-07-26T21:44:36.377Z,18.00
2022-07-26T21:47:05.817Z,17.90
2022-07-26T21:49:33.849Z,17.90
2022-07-26T21:52:00.815Z,17.80
2022-07-26T21:54:28.154Z,17.80
2022-07-26T21:56:55.066Z,17.70
2022-07-26T21:59:22.207Z,17.70
2022-07-26T22:01:49.385Z,17.70
2022-07-26T22:04:17.912Z,17.60
2022-07-26T22:06:45.075Z,17.60
2022-07-26T22:09:12.876Z,17.70
2022-07-26T22:11:40.141Z,17.70
2022-07-26T22:14:08.468Z,17.60
2022-07-26T22:16:35.907Z,17.70
2022-07-26T22:19:03.169Z,17.70
2022-07-26T22:21:30.296Z,17.60
2022-07-26T22:23:57.645Z,17.60
2022-07-26T22:26:30.961Z,17.50
2022-07-26T22:28:59.229Z,17.40
2022-07-26T22:31:26.492Z,17.20
2022-07-26T22:33:53.486Z,17.10
2022-07-26T22:36:20.999Z,17.00
2022-07-26T22:38:47.958Z,17.00
2022-07-26T22:41:14.891Z,16.90
2022-07-26T22:43:42.051Z,16.80
2022-07-26T22:46:09.186Z,16.80
2022-07-26T22:48:38.678Z,16.70
2022-07-26T22:51:06.311Z,16.70
2022-07-26T22:53:33.421Z,16.70
2022-07-26T22:56:00.328Z,16.60
2022-07-26T22:58:27.807Z,16.60
2022-07-26T23:00:54.829Z,16.50
2022-07-26T23:03:22.022Z,16.50
2022-07-26T23:05:50.454Z,16.40
2022-07-26T23:11:06.629Z,16.30
2022-07-26T23:13:33.746Z,16.30
2022-07-26T23:16:01.889Z,16.20
2022-07-26T23:18:31.247Z,16.20
2022-07-26T23:20:58.305Z,16.20
2022-07-26T23:23:29.192Z,16.10
2022-07-26T23:25:58.670Z,16.10
2022-07-26T23:28:35.411Z,16.20
2022-07-26T23:31:07.019Z,16.20
2022-07-26T23:33:53.454Z,16.20
2022-07-26T23:36:23.566Z,16.20
2022-07-26T23:38:51.119Z,16.20
2022-07-26T23:41:19.098Z,16.10
2022-07-26T23:43:46.304Z,16.10
2022-07-26T23:46:13.384Z,16.00
2022-07-26T23:48:40.547Z,16.00
2022-07-26T23:51:08.179Z,16.00
2022-07-26T23:53:35.121Z,15.90
2022-07-26T23:56:02.066Z,15.90
2022-07-26T23:58:29.320Z,15.80
